Time;durP1;ratioP1;P1;durP2;ratioP2;P2;SDS_P1;SDS_P2;PMS_P1;PMS_P2;Temp;Humidity;BMP_temperature;BMP_pressure;BME280_temperature;BME280_humidity;BME280_pressure;Samples;Min_cycle;Max_cycle;Signal;HPM_P1;HPM_P2
2023/06/27 00:00:14;;;;;;;11.70;4.28;;;;;;;15.85;100.00;101845.59;5218416;28;20040;-69
2023/06/27 00:02:53;;;;;;;10.27;4.28;;;;;;;15.95;100.00;101852.91;5219601;28;20112;-69
2023/06/27 00:05:24;;;;;;;7.70;3.53;;;;;;;15.92;100.00;101845.97;5218650;28;20029;-69
2023/06/27 00:07:56;;;;;;;6.95;3.58;;;;;;;15.83;100.00;101838.66;5219811;28;20053;-69
2023/06/27 00:10:27;;;;;;;8.77;3.42;;;;;;;15.81;100.00;101844.16;5222178;28;20120;-69
2023/06/27 00:12:59;;;;;;;7.68;3.15;;;;;;;15.79;100.00;101838.03;5226432;28;20032;-68
2023/06/27 00:15:34;;;;;;;9.75;3.60;;;;;;;15.79;100.00;101840.72;5221166;28;20037;-69
2023/06/27 00:18:08;;;;;;;9.30;3.85;;;;;;;15.86;100.00;101841.09;5216727;28;20041;-69
2023/06/27 00:20:39;;;;;;;8.27;3.67;;;;;;;15.73;100.00;101846.63;5218811;28;20040;-69
2023/06/27 00:23:17;;;;;;;8.55;3.60;;;;;;;15.74;100.00;101847.47;5216730;28;20034;-69
2023/06/27 00:25:49;;;;;;;8.63;3.70;;;;;;;15.69;100.00;101845.97;5216748;28;20025;-69
2023/06/27 00:28:20;;;;;;;9.48;3.70;;;;;;;15.67;100.00;101845.25;5220753;28;20029;-68
2023/06/27 00:30:51;;;;;;;8.20;3.65;;;;;;;15.65;100.00;101851.75;5225127;28;20034;-69
2023/06/27 00:33:23;;;;;;;13.65;4.15;;;;;;;15.67;100.00;101845.25;5224481;28;20030;-68
2023/06/27 00:35:54;;;;;;;10.32;3.80;;;;;;;15.65;100.00;101838.31;5226101;28;20060;-68
2023/06/27 00:38:26;;;;;;;8.63;3.83;;;;;;;15.61;100.00;101839.50;5224708;28;20071;-69
2023/06/27 00:40:57;;;;;;;11.35;3.88;;;;;;;15.71;100.00;101847.72;5231967;28;20070;-69
2023/06/27 00:43:29;;;;;;;10.90;3.85;;;;;;;15.64;100.00;101840.13;5227036;28;20053;-69
2023/06/27 00:46:06;;;;;;;10.98;3.60;;;;;;;15.61;100.00;101839.50;5229786;28;20037;-69
2023/06/27 00:48:38;;;;;;;9.88;3.95;;;;;;;15.58;100.00;101840.63;5225422;28;20025;-69
2023/06/27 00:51:10;;;;;;;7.32;3.47;;;;;;;15.58;100.00;101843.31;5225123;28;20037;-69
2023/06/27 00:53:42;;;;;;;8.43;3.78;;;;;;;15.54;100.00;101847.25;5224266;28;20033;-69
2023/06/27 00:56:13;;;;;;;9.00;3.92;;;;;;;15.57;100.00;101855.06;5224875;28;20403;-69
2023/06/27 00:58:45;;;;;;;9.45;3.83;;;;;;;15.56;100.00;101849.81;5231748;28;20112;-69
2023/06/27 01:01:16;;;;;;;9.20;3.63;;;;;;;15.54;100.00;101846.41;5226783;28;20471;-69
2023/06/27 01:03:48;;;;;;;9.57;3.75;;;;;;;15.61;100.00;101852.97;5227584;28;20033;-69
2023/06/27 01:06:44;;;;;;;9.50;3.60;;;;;;;15.51;100.00;101850.16;5227908;28;20496;-68
2023/06/27 01:09:26;;;;;;;7.18;3.58;;;;;;;15.52;100.00;101842.97;5219338;28;20056;-69
2023/06/27 01:12:13;;;;;;;9.52;4.03;;;;;;;15.52;100.00;101859.13;5217847;28;20041;-69
2023/06/27 01:14:49;;;;;;;11.00;3.70;;;;;;;15.44;100.00;101852.53;5217092;28;20025;-68
2023/06/27 01:17:21;;;;;;;10.50;3.80;;;;;;;15.51;100.00;101849.31;5220637;28;20035;-68
2023/06/27 01:19:54;;;;;;;10.70;3.55;;;;;;;15.57;100.00;101843.44;5216650;28;20021;-69
2023/06/27 01:22:30;;;;;;;9.68;3.67;;;;;;;15.59;100.00;101853.13;5218852;28;20239;-69
2023/06/27 01:25:03;;;;;;;10.30;3.85;;;;;;;15.45;100.00;101850.69;5229997;28;20042;-69
2023/06/27 01:27:34;;;;;;;7.10;3.60;;;;;;;15.42;100.00;101848.25;5226952;28;20040;-69
2023/06/27 01:30:07;;;;;;;8.93;3.70;;;;;;;15.51;100.00;101849.31;5230935;28;20033;-69
2023/06/27 01:32:59;;;;;;;7.78;3.38;;;;;;;15.41;100.00;101852.75;5230212;28;20080;-68
2023/06/27 01:35:39;;;;;;;8.75;3.85;;;;;;;15.37;100.00;101858.53;5240576;28;20025;-69
2023/06/27 01:38:17;;;;;;;9.93;3.38;;;;;;;15.34;100.00;101846.19;5236775;28;20038;-69
2023/06/27 01:40:52;;;;;;;9.55;3.63;;;;;;;15.28;100.00;101846.66;5229510;28;20028;-69
2023/06/27 01:43:25;;;;;;;8.13;3.60;;;;;;;15.35;100.00;101853.25;5236664;28;20040;-69
2023/06/27 01:45:57;;;;;;;9.13;3.50;;;;;;;15.24;100.00;101850.56;5229441;28;20033;-69
2023/06/27 01:48:28;;;;;;;10.20;3.83;;;;;;;15.26;100.00;101844.13;5240424;28;20480;-69
2023/06/27 01:51:00;;;;;;;12.50;3.60;;;;;;;15.31;100.00;101850.97;5230039;28;20184;-69
2023/06/27 01:53:32;;;;;;;11.05;3.72;;;;;;;15.26;100.00;101846.81;5231425;28;20875;-68
2023/06/27 01:56:05;;;;;;;9.30;3.42;;;;;;;15.23;100.00;101843.50;5232698;28;20436;-69
2023/06/27 01:58:37;;;;;;;8.55;3.80;;;;;;;15.21;100.00;101835.56;5232772;28;20033;-69
2023/06/27 02:01:08;;;;;;;11.52;4.03;;;;;;;15.22;100.00;101837.25;5234886;28;20483;-69
2023/06/27 02:03:40;;;;;;;9.07;3.92;;;;;;;15.33;100.00;101833.72;5236105;28;20491;-69
2023/06/27 02:06:11;;;;;;;9.05;3.67;;;;;;;15.21;100.00;101840.94;5235606;28;20053;-68
2023/06/27 02:08:43;;;;;;;9.85;4.70;;;;;;;15.35;100.00;101833.59;5238266;28;20036;-70
2023/06/27 02:11:15;;;;;;;8.93;3.75;;;;;;;15.24;100.00;101834.44;5229310;28;20021;-68
2023/06/27 02:13:46;;;;;;;6.10;3.50;;;;;;;15.20;100.00;101833.84;5237902;28;20049;-68
2023/06/27 02:16:17;;;;;;;13.77;3.83;;;;;;;15.20;100.00;101833.84;5239457;28;20092;-69
2023/06/27 02:18:49;;;;;;;9.98;3.67;;;;;;;15.19;100.00;101832.13;5234069;28;20024;-68
2023/06/27 02:21:20;;;;;;;14.23;3.95;;;;;;;15.19;100.00;101829.44;5232893;28;20029;-69
2023/06/27 02:23:51;;;;;;;9.82;3.53;;;;;;;15.18;100.00;101830.41;5215978;28;20030;-69
2023/06/27 02:26:23;;;;;;;6.88;3.30;;;;;;;15.16;100.00;101827.00;5222346;28;20029;-68
2023/06/27 02:28:54;;;;;;;6.93;3.30;;;;;;;15.15;100.00;101824.44;5224452;28;20483;-69
2023/06/27 02:31:26;;;;;;;9.88;3.83;;;;;;;15.12;100.00;101825.53;5233887;28;20130;-69
2023/06/27 02:33:58;;;;;;;6.55;3.40;;;;;;;15.17;100.00;101828.72;5223954;28;20463;-69
2023/06/27 02:36:29;;;;;;;11.27;3.38;;;;;;;15.15;100.00;101824.44;5229235;28;20034;-68
2023/06/27 02:39:01;;;;;;;9.77;3.70;;;;;;;15.21;100.00;101821.28;5235395;28;20033;-68
2023/06/27 02:41:32;;;;;;;9.88;3.72;;;;;;;15.15;100.00;101819.06;5232626;28;20476;-69
2023/06/27 02:44:04;;;;;;;10.35;4.07;;;;;;;15.14;100.00;101818.19;5234528;28;20034;-69
2023/06/27 02:46:35;;;;;;;9.32;3.35;;;;;;;15.17;100.00;101812.59;5229943;28;20057;-69
2023/06/27 02:49:07;;;;;;;10.75;4.03;;;;;;;15.16;100.00;101816.25;5228196;28;20097;-69
2023/06/27 02:51:38;;;;;;;11.85;3.70;;;;;;;15.12;100.00;101819.31;5228726;28;20070;-69
2023/06/27 02:54:09;;;;;;;8.23;3.45;;;;;;;15.07;100.00;101820.53;5232613;28;20413;-68
2023/06/27 02:56:41;;;;;;;8.05;3.75;;;;;;;15.06;100.00;101817.97;5230786;28;20060;-69
2023/06/27 02:59:12;;;;;;;9.35;4.00;;;;;;;15.04;100.00;101812.72;5231552;28;20021;-69
2023/06/27 03:01:44;;;;;;;9.85;4.25;;;;;;;15.02;100.00;101811.97;5228662;28;20120;-69
2023/06/27 03:04:20;;;;;;;9.52;3.63;;;;;;;15.02;100.00;101825.41;5229984;28;20034;-69
2023/06/27 03:06:51;;;;;;;10.70;3.55;;;;;;;15.02;100.00;101825.41;5227845;28;20049;-68
2023/06/27 03:09:23;;;;;;;10.45;3.92;;;;;;;15.01;100.00;101829.06;5226439;28;20033;-69
2023/06/27 03:11:54;;;;;;;7.55;3.28;;;;;;;14.96;100.00;101828.59;5223169;28;20025;-69
2023/06/27 03:14:26;;;;;;;11.93;3.60;;;;;;;14.93;100.00;101820.78;5229636;28;20037;-69
2023/06/27 03:16:57;;;;;;;10.35;3.60;;;;;;;14.92;100.00;101826.25;5223708;28;20117;-68
2023/06/27 03:19:28;;;;;;;9.70;3.65;;;;;;;14.94;100.00;101832.38;5234891;28;20025;-69
2023/06/27 03:22:00;;;;;;;12.43;3.72;;;;;;;15.08;100.00;101841.06;5223654;28;20120;-69
2023/06/27 03:24:31;;;;;;;9.80;3.60;;;;;;;14.92;100.00;101835.19;5226416;28;20033;-69
2023/06/27 03:27:03;;;;;;;8.38;3.72;;;;;;;14.90;100.00;101834.47;5224429;28;20116;-69
2023/06/27 03:29:34;;;;;;;10.43;3.38;;;;;;;14.87;100.00;101832.84;5225237;28;20057;-69
2023/06/27 03:32:06;;;;;;;8.73;3.80;;;;;;;14.96;100.00;101835.78;5225783;28;20054;-69
2023/06/27 03:34:40;;;;;;;12.32;3.85;;;;;;;14.90;100.00;101838.00;5229085;28;20033;-68
2023/06/27 03:37:11;;;;;;;13.93;4.50;;;;;;;14.95;100.00;101840.31;5229025;28;20053;-69
2023/06/27 03:39:43;;;;;;;8.65;4.05;;;;;;;14.86;100.00;101831.16;5228502;28;20033;-69
2023/06/27 03:42:16;;;;;;;11.80;3.78;;;;;;;14.89;100.00;101840.81;5224652;28;20104;-69
2023/06/27 03:44:47;;;;;;;12.60;3.83;;;;;;;14.81;100.00;101830.66;5228243;28;20035;-68
2023/06/27 03:47:19;;;;;;;9.73;3.65;;;;;;;14.81;100.00;101838.72;5240048;28;20288;-69
2023/06/27 03:49:50;;;;;;;9.27;3.95;;;;;;;14.81;100.00;101832.50;5224672;28;20060;-68
2023/06/27 03:52:22;;;;;;;9.45;3.80;;;;;;;14.76;100.00;101834.69;5224014;28;20055;-69
2023/06/27 03:54:53;;;;;;;11.50;3.47;;;;;;;14.75;100.00;101841.06;5220690;28;20025;-69
2023/06/27 03:57:25;;;;;;;10.82;3.90;;;;;;;14.75;100.00;101843.75;5226423;28;20135;-68
2023/06/27 03:59:56;;;;;;;11.70;4.15;;;;;;;14.74;100.00;101842.84;5219228;28;20025;-68
2023/06/27 04:02:27;;;;;;;13.85;3.53;;;;;;;14.67;100.00;101845.19;5221932;28;20379;-69
2023/06/27 04:04:59;;;;;;;12.43;4.63;;;;;;;14.67;100.00;101845.19;5218411;28;20114;-69
2023/06/27 04:07:30;;;;;;;14.15;4.10;;;;;;;14.69;100.00;101845.91;5218895;28;20499;-69
2023/06/27 04:10:02;;;;;;;7.60;3.65;;;;;;;14.67;100.00;101844.34;5216937;28;20419;-69
2023/06/27 04:12:33;;;;;;;10.85;4.57;;;;;;;14.64;100.00;101841.88;5222607;28;20048;-69
2023/06/27 04:15:05;;;;;;;10.60;4.00;;;;;;;14.63;100.00;101840.16;5219449;28;20493;-69
2023/06/27 04:17:37;;;;;;;10.32;4.47;;;;;;;14.68;100.00;101836.13;5225404;28;20423;-69
2023/06/27 04:20:08;;;;;;;10.38;3.90;;;;;;;14.69;100.00;101842.38;5221448;28;20771;-68
2023/06/27 04:22:40;;;;;;;9.38;3.90;;;;;;;14.72;100.00;101842.13;5220087;28;20032;-69
2023/06/27 04:25:12;;;;;;;11.52;4.10;;;;;;;14.65;100.00;101841.75;5218988;28;20041;-69
2023/06/27 04:27:44;;;;;;;9.98;4.30;;;;;;;14.66;100.00;101840.78;5220101;28;20025;-69
2023/06/27 04:30:15;;;;;;;12.90;4.53;;;;;;;14.68;100.00;101838.81;5222186;28;20036;-69
2023/06/27 04:32:48;;;;;;;10.68;4.22;;;;;;;14.65;100.00;101843.56;5227135;28;20083;-69
2023/06/27 04:35:20;;;;;;;16.27;5.05;;;;;;;14.62;100.00;101842.00;5226699;28;20136;-69
2023/06/27 04:37:51;;;;;;;12.55;4.65;;;;;;;14.61;100.00;101842.97;5224269;28;20022;-69
2023/06/27 04:40:23;;;;;;;13.55;4.30;;;;;;;14.72;100.00;101854.72;5227932;28;20770;-69
2023/06/27 04:42:54;;;;;;;10.68;4.32;;;;;;;14.61;100.00;101847.47;5228654;28;20091;-69
2023/06/27 04:45:26;;;;;;;10.90;5.15;;;;;;;14.60;100.00;101849.31;5229091;28;20064;-68
2023/06/27 04:47:57;;;;;;;11.15;4.40;;;;;;;14.59;100.00;101844.91;5227261;28;20060;-68
2023/06/27 04:50:29;;;;;;;12.38;5.15;;;;;;;14.58;100.00;101851.25;5223246;28;20034;-69
2023/06/27 04:53:03;;;;;;;11.98;4.75;;;;;;;14.55;100.00;101861.34;5226597;28;20035;-68
2023/06/27 04:55:34;;;;;;;;;;;;;;;14.74;100.00;101853.59;5225962;28;20434;-69
2023/06/27 04:58:06;;;;;;;14.02;4.95;;;;;;;14.58;100.00;101855.78;5221932;28;20302;-69
2023/06/27 05:00:37;;;;;;;15.50;5.00;;;;;;;14.59;100.00;101861.03;5232290;28;20484;-68
2023/06/27 05:03:09;;;;;;;10.95;4.57;;;;;;;14.58;100.00;101866.53;5229812;28;20119;-69
2023/06/27 05:05:41;;;;;;;16.95;4.90;;;;;;;14.54;100.00;101859.66;5228081;28;20488;-68
2023/06/27 05:08:12;;;;;;;12.55;5.45;;;;;;;14.58;100.00;101853.09;5225494;28;20072;-69
2023/06/27 05:10:46;;;;;;;12.30;4.97;;;;;;;14.65;100.00;101865.06;5231171;28;20124;-69
2023/06/27 05:13:17;;;;;;;16.67;5.57;;;;;;;14.65;100.00;101863.25;5228103;28;20029;-69
2023/06/27 05:15:49;;;;;;;15.23;4.80;;;;;;;14.70;100.00;101861.03;5232890;28;20040;-68
2023/06/27 05:18:25;;;;;;;12.98;4.95;;;;;;;14.80;100.00;101857.66;5224640;28;20127;-69
2023/06/27 05:20:56;;;;;;;14.25;5.25;;;;;;;14.88;100.00;101864.16;5226471;28;20108;-68
2023/06/27 05:23:28;;;;;;;11.50;5.18;;;;;;;14.97;100.00;101864.38;5225006;28;20022;-69
2023/06/27 05:25:59;;;;;;;12.63;5.65;;;;;;;15.12;100.00;101855.09;5222787;28;20447;-68
2023/06/27 05:28:31;;;;;;;9.38;4.53;;;;;;;15.25;100.00;101863.06;5223799;28;20029;-69
2023/06/27 05:31:03;;;;;;;13.35;5.13;;;;;;;15.27;100.00;101861.09;5223456;28;20033;-69
2023/06/27 05:33:34;;;;;;;14.30;5.18;;;;;;;15.32;100.00;101864.25;5231408;28;20041;-69
2023/06/27 05:36:06;;;;;;;12.40;5.38;;;;;;;15.41;100.00;101859.97;5228109;28;20377;-69
2023/06/27 05:38:37;;;;;;;12.65;4.78;;;;;;;15.45;100.00;101866.81;5230639;28;20029;-69
2023/06/27 05:41:08;;;;;;;11.00;4.80;;;;;;;15.49;100.00;101865.59;5222741;28;20380;-69
2023/06/27 05:43:40;;;;;;;13.57;5.43;;;;;;;15.53;100.00;101861.66;5227377;28;20021;-69
2023/06/27 05:46:11;;;;;;;15.02;5.72;;;;;;;15.67;100.00;101857.88;5228770;28;20107;-69
2023/06/27 05:48:43;;;;;;;10.18;4.82;;;;;;;15.69;100.00;101859.44;5229054;28;20029;-69
2023/06/27 05:51:14;;;;;;;12.93;5.20;;;;;;;15.71;100.00;101861.16;5229877;28;20120;-69
2023/06/27 05:53:46;;;;;;;14.90;5.65;;;;;;;15.71;100.00;101858.47;5228945;28;20403;-69
2023/06/27 05:56:17;;;;;;;12.60;5.70;;;;;;;15.69;100.00;101859.44;5231337;28;20033;-69
2023/06/27 05:58:49;;;;;;;12.73;5.93;;;;;;;15.86;100.00;101865.31;5225765;28;20033;-69
2023/06/27 06:01:20;;;;;;;12.63;5.93;;;;;;;15.86;100.00;101863.47;5229620;28;20026;-68
2023/06/27 06:03:51;;;;;;;12.40;5.57;;;;;;;15.91;100.00;101860.38;5222060;28;20030;-69
2023/06/27 06:06:23;;;;;;;15.02;7.13;;;;;;;16.03;100.00;101858.50;5225634;28;20087;-69
2023/06/27 06:08:54;;;;;;;11.73;6.18;;;;;;;16.07;100.00;101865.38;5240156;28;20387;-69
2023/06/27 06:11:26;;;;;;;15.07;6.32;;;;;;;16.10;100.00;101854.31;5233254;28;20087;-69
2023/06/27 06:13:58;;;;;;;14.75;5.88;;;;;;;16.17;100.00;101855.53;5227904;28;20025;-69
2023/06/27 06:16:33;;;;;;;11.85;5.93;;;;;;;16.27;100.00;101856.44;5230754;28;21472;-69
2023/06/27 06:19:06;;;;;;;13.88;6.18;;;;;;;16.32;100.00;101858.75;5227212;28;20044;-69
2023/06/27 06:21:39;;;;;;;12.70;6.10;;;;;;;16.41;100.00;101857.09;5230457;28;20026;-70
2023/06/27 06:24:10;;;;;;;14.90;6.47;;;;;;;16.46;100.00;101866.50;5235976;28;20533;-69
2023/06/27 06:26:42;;;;;;;12.68;6.45;;;;;;;16.56;100.00;101871.13;5228974;28;20041;-69
2023/06/27 06:29:13;;;;;;;15.13;6.55;;;;;;;16.64;100.00;101869.50;5225989;28;20034;-69
2023/06/27 06:31:45;;;;;;;18.13;6.25;;;;;;;16.78;100.00;101870.09;5218760;28;20400;-69
2023/06/27 06:34:16;;;;;;;14.23;5.80;;;;;;;16.90;100.00;101863.69;5227410;28;20068;-69
2023/06/27 06:36:48;;;;;;;17.02;6.38;;;;;;;16.97;100.00;101869.41;5232958;28;20538;-69
2023/06/27 06:39:19;;;;;;;13.80;6.05;;;;;;;17.03;100.00;101877.81;5233082;28;20036;-68
2023/06/27 06:41:51;;;;;;;12.82;5.78;;;;;;;17.13;100.00;101879.72;5231238;28;20021;-69
2023/06/27 06:44:23;;;;;;;15.77;6.57;;;;;;;17.25;100.00;101875.91;5237031;28;20029;-69
2023/06/27 06:46:54;;;;;;;13.77;5.90;;;;;;;17.44;100.00;101873.28;5236338;28;20123;-69
2023/06/27 06:49:25;;;;;;;14.07;5.88;;;;;;;17.51;100.00;101878.13;5235957;28;20037;-69
2023/06/27 06:51:57;;;;;;;15.25;5.95;;;;;;;17.59;100.00;101883.72;5231840;28;20364;-69
2023/06/27 06:54:28;;;;;;;18.48;6.30;;;;;;;17.70;100.00;101878.19;5232542;28;20392;-69
2023/06/27 06:56:59;;;;;;;12.77;5.90;;;;;;;17.82;100.00;101871.69;5234167;28;20144;-69
2023/06/27 06:59:31;;;;;;;13.85;5.82;;;;;;;17.91;100.00;101877.25;5232370;28;20036;-68
2023/06/27 07:02:02;;;;;;;11.68;6.05;;;;;;;18.02;100.00;101875.31;5229992;28;20033;-69
2023/06/27 07:04:33;;;;;;;12.93;5.82;;;;;;;18.10;100.00;101879.13;5233708;28;20483;-69
2023/06/27 07:07:05;;;;;;;15.43;5.57;;;;;;;18.21;100.00;101885.22;5235568;28;20467;-68
2023/06/27 07:09:36;;;;;;;13.85;6.10;;;;;;;18.31;100.00;101881.69;5236301;28;20884;-69
2023/06/27 07:12:08;;;;;;;16.13;5.93;;;;;;;18.34;100.00;101873.31;5234019;28;20140;-69
2023/06/27 07:14:39;;;;;;;12.70;6.07;;;;;;;18.50;100.00;101870.00;5233081;28;20030;-69
2023/06/27 07:17:11;;;;;;;16.70;5.53;;;;;;;18.60;100.00;101878.94;5227910;28;20116;-69
2023/06/27 07:19:42;;;;;;;15.23;6.30;;;;;;;18.71;100.00;101889.59;5230695;28;20033;-69
2023/06/27 07:22:14;;;;;;;13.07;5.35;;;;;;;18.85;100.00;101885.63;5232691;28;20028;-69
2023/06/27 07:24:48;;;;;;;12.15;5.15;;;;;;;18.98;100.00;101872.66;5236067;28;20116;-69
2023/06/27 07:27:20;;;;;;;12.80;5.45;;;;;;;19.15;100.00;101887.22;5228793;28;20183;-69
2023/06/27 07:29:51;;;;;;;12.55;4.70;;;;;;;19.14;100.00;101871.16;5227213;28;20108;-69
2023/06/27 07:32:23;;;;;;;10.00;4.15;;;;;;;19.31;100.00;101877.63;5234464;28;20029;-69
2023/06/27 07:34:54;;;;;;;8.38;4.00;;;;;;;19.53;100.00;101865.56;5231344;28;20404;-70
2023/06/27 07:37:26;;;;;;;10.15;3.80;;;;;;;19.71;100.00;101873.72;5235026;28;20426;-69
2023/06/27 07:40:00;;;;;;;10.27;4.43;;;;;;;19.92;100.00;101865.31;5239057;28;20029;-69
2023/06/27 07:42:31;;;;;;;10.88;3.80;;;;;;;20.04;100.00;101871.38;5224067;28;20029;-69
2023/06/27 07:45:03;;;;;;;9.43;3.28;;;;;;;20.11;100.00;101857.03;5233420;28;20036;-69
2023/06/27 07:47:34;;;;;;;9.55;3.38;;;;;;;20.17;100.00;101871.81;5236893;28;20488;-69
2023/06/27 07:50:06;;;;;;;9.23;3.47;;;;;;;20.26;100.00;101868.19;5233429;28;20090;-70
2023/06/27 07:52:39;;;;;;;7.78;2.63;;;;;;;20.36;100.00;101865.38;5239990;28;20025;-69
2023/06/27 07:55:11;;;;;;;7.20;2.45;;;;;;;20.48;100.00;101863.28;5230083;28;20045;-70
2023/06/27 07:57:42;;;;;;;6.20;2.30;;;;;;;20.46;100.00;101866.16;5228820;28;20029;-70
2023/06/27 08:00:15;;;;;;;9.50;3.10;;;;;;;20.43;100.00;101869.19;5230113;28;20491;-69
2023/06/27 08:02:47;;;;;;;8.80;2.58;;;;;;;20.40;100.00;101860.50;5232952;28;20033;-69
2023/06/27 08:05:18;;;;;;;7.97;2.10;;;;;;;20.50;100.00;101867.56;5233713;28;20303;-69
2023/06/27 08:07:50;;;;;;;8.25;2.42;;;;;;;20.65;100.00;101861.56;5235269;28;20049;-69
2023/06/27 08:10:21;;;;;;;6.75;1.60;;;;;;;20.71;100.00;101861.81;5235635;28;20037;-70
2023/06/27 08:12:53;;;;;;;6.95;1.80;;;;;;;20.72;100.00;101866.19;5229315;28;20068;-70
2023/06/27 08:15:24;;;;;;;7.85;1.80;;;;;;;20.78;100.00;101861.16;5235197;28;20025;-70
2023/06/27 08:17:57;;;;;;;5.95;1.95;;;;;;;20.87;100.00;101858.34;5234376;28;20033;-69
2023/06/27 08:20:28;;;;;;;6.38;1.67;;;;;;;20.83;100.00;101862.38;5235776;28;20029;-69
2023/06/27 08:22:59;;;;;;;4.32;1.20;;;;;;;20.90;100.00;101858.03;5228977;28;20459;-70
2023/06/27 08:25:31;;;;;;;6.65;1.75;;;;;;;20.94;100.00;101859.41;5232693;28;20391;-70
2023/06/27 08:28:02;;;;;;;6.07;1.70;;;;;;;21.04;100.00;101863.88;5233558;28;20395;-69
2023/06/27 08:30:34;;;;;;;6.05;1.60;;;;;;;21.11;100.00;101857.63;5230924;28;20032;-70
2023/06/27 08:33:06;;;;;;;5.50;1.50;;;;;;;21.12;100.00;101861.19;5237625;28;20041;-70
2023/06/27 08:35:38;;;;;;;6.25;1.80;;;;;;;21.10;100.00;101855.91;5224200;28;20025;-70
2023/06/27 08:38:10;;;;;;;6.68;1.77;;;;;;;21.22;100.00;101845.63;5227271;28;20107;-70
2023/06/27 08:40:44;;;;;;;6.18;1.70;;;;;;;21.09;100.00;101848.81;5239500;28;20068;-70
2023/06/27 08:43:15;;;;;;;5.47;1.50;;;;;;;21.19;100.00;101850.50;5229827;28;20428;-70
2023/06/27 08:45:48;;;;;;;6.55;1.50;;;;;;;21.19;100.00;101850.50;5233768;28;20179;-70
2023/06/27 08:48:20;;;;;;;7.38;2.20;;;;;;;21.28;100.00;101852.25;5227384;28;20021;-70
2023/06/27 08:50:53;;;;;;;6.53;1.60;;;;;;;21.37;100.00;101842.31;5228069;28;20037;-70
2023/06/27 08:53:28;;;;;;;7.07;1.90;;;;;;;21.40;100.00;101848.25;5229497;28;20022;-69
2023/06/27 08:56:02;;;;;;;7.22;1.95;;;;;;;21.38;100.00;101838.56;5242637;28;20075;-69
2023/06/27 08:58:46;;;;;;;;;;;;;;;21.46;100.00;101839.47;5237315;28;20026;-70
2023/06/27 09:01:18;;;;;;;6.50;1.83;;;;;;;21.13;100.00;101839.31;5229508;28;19990;-70
2023/06/27 09:03:50;;;;;;;7.13;2.00;;;;;;;20.98;100.00;101845.50;5228656;28;20103;-70
2023/06/27 09:06:22;;;;;;;7.38;2.00;;;;;;;20.86;100.00;101840.34;5228272;28;20078;-69
2023/06/27 09:08:54;;;;;;;9.15;2.00;;;;;;;20.80;100.00;101837.44;5226879;28;20048;-70
2023/06/27 09:11:26;;;;;;;8.98;2.22;;;;;;;20.90;100.00;101844.47;5232087;28;20069;-69
2023/06/27 09:13:58;;;;;;;4.93;1.60;;;;;;;20.92;100.00;101849.69;5231497;28;20026;-70
2023/06/27 09:16:30;;;;;;;9.55;2.13;;;;;;;20.97;100.00;101846.53;5228547;28;20707;-69
2023/06/27 09:19:01;;;;;;;5.70;1.50;;;;;;;20.89;100.00;101841.91;5228960;28;20018;-69
2023/06/27 09:21:34;;;;;;;7.10;1.50;;;;;;;20.99;100.00;101837.19;5219011;28;20028;-69
2023/06/27 09:24:13;;;;;;;7.32;1.83;;;;;;;20.97;100.00;101846.53;5228955;28;20488;-69
2023/06/27 09:26:44;;;;;;;7.15;1.38;;;;;;;20.97;100.00;101844.66;5231078;28;20104;-69
2023/06/27 09:29:16;;;;;;;7.28;1.33;;;;;;;20.97;100.00;101839.22;5240075;28;20533;-69
2023/06/27 09:31:47;;;;;;;4.22;1.20;;;;;;;21.11;100.00;101843.19;5230841;28;20384;-70
2023/06/27 09:34:27;;;;;;;3.50;1.10;;;;;;;21.23;100.00;101841.03;5234080;28;20451;-69
2023/06/27 09:37:01;;;;;;;4.63;0.95;;;;;;;21.39;100.00;101842.97;5234473;28;20040;-69
2023/06/27 09:39:32;;;;;;;7.22;1.52;;;;;;;21.43;100.00;101845.19;5232705;28;20024;-69
2023/06/27 09:42:04;;;;;;;3.88;1.10;;;;;;;21.61;100.00;101845.13;5231755;28;20471;-69
2023/06/27 09:44:35;;;;;;;5.47;1.20;;;;;;;21.69;100.00;101856.00;5235007;28;20417;-70
2023/06/27 09:47:10;;;;;;;4.07;1.23;;;;;;;21.73;100.00;101851.94;5230504;28;20041;-70
2023/06/27 09:49:44;;;;;;;4.78;1.00;;;;;;;21.79;100.00;101853.13;5233325;28;20693;-70
2023/06/27 09:52:18;;;;;;;7.03;1.15;;;;;;;21.93;100.00;101865.22;5235340;28;20033;-70
2023/06/27 09:54:49;;;;;;;4.63;1.23;;;;;;;21.99;100.00;101871.84;5235315;28;20029;-69
2023/06/27 09:57:23;;;;;;;4.50;1.00;;;;;;;22.12;100.00;101861.34;5227696;28;20507;-70
2023/06/27 09:59:58;;;;;;;3.45;0.98;;;;;;;22.23;100.00;101865.59;5237827;28;20068;-70
2023/06/27 10:02:30;;;;;;;5.43;0.90;;;;;;;22.22;100.00;101858.44;5234500;28;20025;-70
2023/06/27 10:05:01;;;;;;;4.07;1.05;;;;;;;22.28;100.00;101858.66;5235415;28;20036;-70
2023/06/27 10:07:33;;;;;;;4.80;0.80;;;;;;;22.30;100.00;101862.06;5228870;28;20403;-70
2023/06/27 10:10:06;;;;;;;2.88;0.90;;;;;;;22.33;100.00;101858.16;5231286;28;20037;-70
2023/06/27 10:12:39;;;;;;;3.63;1.15;;;;;;;22.48;100.00;101851.00;5231251;28;20025;-69
2023/06/27 10:15:11;;;;;;;4.18;1.05;;;;;;;22.46;100.00;101858.47;5229881;28;20076;-69
2023/06/27 10:17:44;;;;;;;3.78;0.82;;;;;;;22.50;100.00;101851.66;5237255;28;20033;-70
2023/06/27 10:20:16;;;;;;;8.50;1.15;;;;;;;22.54;93.24;101859.50;5234518;28;20041;-69
2023/06/27 10:22:53;;;;;;;4.93;1.17;;;;;;;22.65;95.53;101864.59;5238131;28;20052;-70
2023/06/27 10:25:26;;;;;;;5.15;0.85;;;;;;;22.50;91.78;101857.09;5237159;28;20411;-69
2023/06/27 10:28:09;;;;;;;3.83;1.00;;;;;;;22.50;99.73;101859.00;5232415;28;20137;-70
2023/06/27 10:30:44;;;;;;;3.37;1.00;;;;;;;22.43;100.00;101856.09;5233217;28;20096;-69
2023/06/27 10:33:28;;;;;;;2.53;0.85;;;;;;;22.38;97.16;101855.78;5233871;28;20034;-70
2023/06/27 10:36:05;;;;;;;2.95;1.00;;;;;;;22.43;100.00;101864.25;5229363;28;20396;-70
2023/06/27 10:38:40;;;;;;;4.38;1.15;;;;;;;22.42;96.66;101865.28;5234083;28;20542;-70
2023/06/27 10:41:23;;;;;;;2.63;0.70;;;;;;;22.34;98.78;101858.97;5233552;28;20115;-70
2023/06/27 10:43:55;;;;;;;4.88;1.52;;;;;;;22.27;95.95;101848.78;5236066;28;20037;-69
2023/06/27 10:46:27;;;;;;;4.07;0.90;;;;;;;22.30;100.00;101848.47;5235207;28;20033;-70
2023/06/27 10:48:59;;;;;;;4.00;1.00;;;;;;;22.35;100.00;101849.81;5232953;28;20025;-71
2023/06/27 10:51:41;;;;;;;5.95;1.00;;;;;;;22.30;96.51;101850.31;5237433;28;20056;-69
2023/06/27 10:54:15;;;;;;;3.20;0.80;;;;;;;22.23;97.69;101850.13;5224615;28;20030;-70
2023/06/27 10:56:53;;;;;;;4.50;0.93;;;;;;;22.19;94.88;101847.94;5224129;28;20037;-69
2023/06/27 10:59:24;;;;;;;3.75;0.90;;;;;;;22.17;96.38;101844.50;5232575;28;20159;-70
2023/06/27 11:02:01;;;;;;;3.03;0.77;;;;;;;22.11;99.88;101838.75;5227187;28;20555;-70
2023/06/27 11:04:43;;;;;;;3.70;1.08;;;;;;;22.19;92.13;101847.94;5227109;28;20025;-69
2023/06/27 11:07:17;;;;;;;3.13;0.85;;;;;;;22.27;87.91;101850.69;5238855;28;20057;-70
2023/06/27 11:09:52;;;;;;;3.00;0.80;;;;;;;22.29;85.50;101851.34;5237618;28;20080;-69
2023/06/27 11:12:32;;;;;;;4.55;0.85;;;;;;;22.40;86.86;101855.56;5231404;28;20029;-69
2023/06/27 11:15:04;;;;;;;5.40;0.93;;;;;;;22.49;86.86;101849.13;5234166;28;20033;-69
2023/06/27 11:17:39;;;;;;;3.03;0.90;;;;;;;22.69;87.71;101852.34;5235609;28;20108;-70
2023/06/27 11:20:11;;;;;;;3.17;0.82;;;;;;;22.88;90.63;101846.50;5229690;28;20037;-70
2023/06/27 11:22:44;;;;;;;4.80;1.08;;;;;;;22.89;82.12;101841.91;5238404;28;20051;-69
2023/06/27 11:25:17;;;;;;;3.33;0.90;;;;;;;23.04;85.42;101842.06;5231555;28;20030;-70
2023/06/27 11:27:55;;;;;;;4.15;0.85;;;;;;;23.06;85.33;101834.56;5235606;28;20223;-70
2023/06/27 11:30:28;;;;;;;2.67;0.73;;;;;;;23.16;86.78;101853.41;5232144;28;20036;-70
2023/06/27 11:33:01;;;;;;;3.58;0.75;;;;;;;23.34;87.76;101850.44;5232546;28;20030;-70
2023/06/27 11:35:34;;;;;;;4.88;1.00;;;;;;;23.38;84.72;101846.38;5229246;28;20029;-70
2023/06/27 11:38:07;;;;;;;3.23;0.90;;;;;;;23.48;86.27;101849.72;5227492;28;20384;-70